sensor_id;sensor_type;location;lat;lon;timestamp;temperature;humidity
19588;DHT22;9940;47.252;8.696;2023-03-03T00:01:45;4.30;99.90
19588;DHT22;9940;47.252;8.696;2023-03-03T00:04:10;4.30;99.90
19588;DHT22;9940;47.252;8.696;2023-03-03T00:06:36;4.30;99.90
19588;DHT22;9940;47.252;8.696;2023-03-03T00:09:04;4.40;99.90
19588;DHT22;9940;47.252;8.696;2023-03-03T00:11:32;4.40;99.90
19588;DHT22;9940;47.252;8.696;2023-03-03T00:14:02;4.40;99.90
19588;DHT22;9940;47.252;8.696;2023-03-03T00:16:34;4.40;99.90
19588;DHT22;9940;47.252;8.696;2023-03-03T00:19:02;4.40;99.90
19588;DHT22;9940;47.252;8.696;2023-03-03T00:21:42;4.40;99.90
19588;DHT22;9940;47.252;8.696;2023-03-03T00:26:50;4.50;99.90
19588;DHT22;9940;47.252;8.696;2023-03-03T00:29:39;4.50;99.90
19588;DHT22;9940;47.252;8.696;2023-03-03T00:34:38;4.50;99.90
19588;DHT22;9940;47.252;8.696;2023-03-03T00:39:50;4.50;99.90
19588;DHT22;9940;47.252;8.696;2023-03-03T00:42:17;4.60;99.90
19588;DHT22;9940;47.252;8.696;2023-03-03T00:44:59;4.60;99.90
19588;DHT22;9940;47.252;8.696;2023-03-03T00:49:52;4.50;99.90
19588;DHT22;9940;47.252;8.696;2023-03-03T00:52:19;4.50;99.90
19588;DHT22;9940;47.252;8.696;2023-03-03T00:54:45;4.50;99.90
19588;DHT22;9940;47.252;8.696;2023-03-03T00:57:13;4.50;99.90
19588;DHT22;9940;47.252;8.696;2023-03-03T00:59:39;4.50;99.90
19588;DHT22;9940;47.252;8.696;2023-03-03T01:02:05;4.40;99.90
19588;DHT22;9940;47.252;8.696;2023-03-03T01:04:31;4.50;99.90
19588;DHT22;9940;47.252;8.696;2023-03-03T01:06:57;4.50;99.90
19588;DHT22;9940;47.252;8.696;2023-03-03T01:09:23;4.40;99.90
19588;DHT22;9940;47.252;8.696;2023-03-03T01:11:54;4.50;99.90
19588;DHT22;9940;47.252;8.696;2023-03-03T01:14:19;4.50;99.90
19588;DHT22;9940;47.252;8.696;2023-03-03T01:16:45;4.50;99.90
19588;DHT22;9940;47.252;8.696;2023-03-03T01:19:11;4.50;99.90
19588;DHT22;9940;47.252;8.696;2023-03-03T01:21:41;4.50;99.90
19588;DHT22;9940;47.252;8.696;2023-03-03T01:24:07;4.50;99.90
19588;DHT22;9940;47.252;8.696;2023-03-03T01:26:35;4.50;99.90
19588;DHT22;9940;47.252;8.696;2023-03-03T01:29:05;4.50;99.90
19588;DHT22;9940;47.252;8.696;2023-03-03T01:31:31;4.50;99.90
19588;DHT22;9940;47.252;8.696;2023-03-03T01:33:56;4.50;99.90
19588;DHT22;9940;47.252;8.696;2023-03-03T01:36:24;4.50;99.90
19588;DHT22;9940;47.252;8.696;2023-03-03T01:38:52;4.50;99.90
19588;DHT22;9940;47.252;8.696;2023-03-03T01:41:18;4.50;99.90
19588;DHT22;9940;47.252;8.696;2023-03-03T01:43:49;4.40;99.90
19588;DHT22;9940;47.252;8.696;2023-03-03T01:48:51;4.50;99.90
19588;DHT22;9940;47.252;8.696;2023-03-03T01:51:25;4.50;99.90
19588;DHT22;9940;47.252;8.696;2023-03-03T01:53:54;4.60;99.90
19588;DHT22;9940;47.252;8.696;2023-03-03T01:56:22;4.60;99.90
19588;DHT22;9940;47.252;8.696;2023-03-03T01:59:06;4.60;99.90
19588;DHT22;9940;47.252;8.696;2023-03-03T02:01:34;4.60;99.90
19588;DHT22;9940;47.252;8.696;2023-03-03T02:04:00;4.60;99.90
19588;DHT22;9940;47.252;8.696;2023-03-03T02:06:34;4.60;99.90
19588;DHT22;9940;47.252;8.696;2023-03-03T02:11:31;4.60;99.90
19588;DHT22;9940;47.252;8.696;2023-03-03T02:13:57;4.60;99.90
19588;DHT22;9940;47.252;8.696;2023-03-03T02:16:23;4.50;99.90
19588;DHT22;9940;47.252;8.696;2023-03-03T02:18:51;4.50;99.90
19588;DHT22;9940;47.252;8.696;2023-03-03T02:21:21;4.50;99.90
19588;DHT22;9940;47.252;8.696;2023-03-03T02:26:20;4.50;99.90
19588;DHT22;9940;47.252;8.696;2023-03-03T02:28:47;4.50;99.90
19588;DHT22;9940;47.252;8.696;2023-03-03T02:31:16;4.50;99.90
19588;DHT22;9940;47.252;8.696;2023-03-03T02:33:45;4.50;99.90
19588;DHT22;9940;47.252;8.696;2023-03-03T02:36:19;4.50;99.90
19588;DHT22;9940;47.252;8.696;2023-03-03T02:39:20;4.50;99.90
19588;DHT22;9940;47.252;8.696;2023-03-03T02:44:29;4.50;99.90
19588;DHT22;9940;47.252;8.696;2023-03-03T02:46:56;4.50;99.90
19588;DHT22;9940;47.252;8.696;2023-03-03T02:49:28;4.50;99.90
19588;DHT22;9940;47.252;8.696;2023-03-03T02:51:55;4.50;99.90
19588;DHT22;9940;47.252;8.696;2023-03-03T02:54:23;4.50;99.90
19588;DHT22;9940;47.252;8.696;2023-03-03T02:56:49;4.60;99.90
19588;DHT22;9940;47.252;8.696;2023-03-03T02:59:18;4.50;99.90
19588;DHT22;9940;47.252;8.696;2023-03-03T03:01:47;4.50;99.90
19588;DHT22;9940;47.252;8.696;2023-03-03T03:04:19;4.50;99.90
19588;DHT22;9940;47.252;8.696;2023-03-03T03:06:46;4.50;99.90
19588;DHT22;9940;47.252;8.696;2023-03-03T03:09:15;4.50;99.90
19588;DHT22;9940;47.252;8.696;2023-03-03T03:11:41;4.50;99.90
19588;DHT22;9940;47.252;8.696;2023-03-03T03:14:11;4.60;99.90
19588;DHT22;9940;47.252;8.696;2023-03-03T03:16:37;4.60;99.90
19588;DHT22;9940;47.252;8.696;2023-03-03T03:19:03;4.70;99.90
19588;DHT22;9940;47.252;8.696;2023-03-03T03:21:29;4.70;99.90
19588;DHT22;9940;47.252;8.696;2023-03-03T03:23:55;4.60;99.90
19588;DHT22;9940;47.252;8.696;2023-03-03T03:26:21;4.70;99.90
19588;DHT22;9940;47.252;8.696;2023-03-03T03:28:50;4.70;99.90
19588;DHT22;9940;47.252;8.696;2023-03-03T03:31:17;4.70;99.90
19588;DHT22;9940;47.252;8.696;2023-03-03T03:33:45;4.70;99.90
19588;DHT22;9940;47.252;8.696;2023-03-03T03:36:11;4.70;99.90
19588;DHT22;9940;47.252;8.696;2023-03-03T03:38:37;4.70;99.90
19588;DHT22;9940;47.252;8.696;2023-03-03T03:41:04;4.80;99.90
19588;DHT22;9940;47.252;8.696;2023-03-03T03:43:31;4.80;99.90
19588;DHT22;9940;47.252;8.696;2023-03-03T03:45:56;4.80;99.90
19588;DHT22;9940;47.252;8.696;2023-03-03T03:48:22;4.80;99.90
19588;DHT22;9940;47.252;8.696;2023-03-03T03:50:48;4.80;99.90
19588;DHT22;9940;47.252;8.696;2023-03-03T03:53:15;4.70;99.90
19588;DHT22;9940;47.252;8.696;2023-03-03T03:55:41;4.70;99.90
19588;DHT22;9940;47.252;8.696;2023-03-03T03:58:08;4.70;99.90
19588;DHT22;9940;47.252;8.696;2023-03-03T04:00:34;4.80;99.90
19588;DHT22;9940;47.252;8.696;2023-03-03T04:02:59;4.80;99.90
19588;DHT22;9940;47.252;8.696;2023-03-03T04:05:27;4.80;99.90
19588;DHT22;9940;47.252;8.696;2023-03-03T04:07:55;4.80;99.90
19588;DHT22;9940;47.252;8.696;2023-03-03T04:10:23;4.80;99.90
19588;DHT22;9940;47.252;8.696;2023-03-03T04:12:49;4.80;99.90
19588;DHT22;9940;47.252;8.696;2023-03-03T04:15:15;4.80;99.90
19588;DHT22;9940;47.252;8.696;2023-03-03T04:17:40;4.80;99.90
19588;DHT22;9940;47.252;8.696;2023-03-03T04:20:11;4.80;99.90
19588;DHT22;9940;47.252;8.696;2023-03-03T04:22:43;4.80;99.90
19588;DHT22;9940;47.252;8.696;2023-03-03T04:25:13;4.80;99.90
19588;DHT22;9940;47.252;8.696;2023-03-03T04:27:43;4.80;99.90
19588;DHT22;9940;47.252;8.696;2023-03-03T04:30:12;4.70;99.90
19588;DHT22;9940;47.252;8.696;2023-03-03T04:32:39;4.70;99.90
19588;DHT22;9940;47.252;8.696;2023-03-03T04:35:05;4.70;99.90
19588;DHT22;9940;47.252;8.696;2023-03-03T04:37:31;4.70;99.90
19588;DHT22;9940;47.252;8.696;2023-03-03T04:39:59;4.70;99.90
19588;DHT22;9940;47.252;8.696;2023-03-03T04:42:25;4.70;99.90
19588;DHT22;9940;47.252;8.696;2023-03-03T04:44:53;4.70;99.90
19588;DHT22;9940;47.252;8.696;2023-03-03T04:47:18;4.70;99.90
19588;DHT22;9940;47.252;8.696;2023-03-03T04:49:44;4.70;99.90
19588;DHT22;9940;47.252;8.696;2023-03-03T04:52:10;4.70;99.90
19588;DHT22;9940;47.252;8.696;2023-03-03T04:54:35;4.70;99.90
19588;DHT22;9940;47.252;8.696;2023-03-03T04:57:03;4.60;99.90
19588;DHT22;9940;47.252;8.696;2023-03-03T04:59:29;4.50;99.90
19588;DHT22;9940;47.252;8.696;2023-03-03T05:01:54;4.50;99.90
19588;DHT22;9940;47.252;8.696;2023-03-03T05:04:20;4.50;99.90
19588;DHT22;9940;47.252;8.696;2023-03-03T05:06:45;4.40;99.90
19588;DHT22;9940;47.252;8.696;2023-03-03T05:09:11;4.50;99.90
19588;DHT22;9940;47.252;8.696;2023-03-03T05:11:37;4.50;99.90
19588;DHT22;9940;47.252;8.696;2023-03-03T05:14:07;4.50;99.90
19588;DHT22;9940;47.252;8.696;2023-03-03T05:16:32;4.50;99.90
19588;DHT22;9940;47.252;8.696;2023-03-03T05:18:59;4.50;99.90
19588;DHT22;9940;47.252;8.696;2023-03-03T05:21:25;4.60;99.90
19588;DHT22;9940;47.252;8.696;2023-03-03T05:23:53;4.50;99.90
19588;DHT22;9940;47.252;8.696;2023-03-03T05:26:19;4.60;99.90
19588;DHT22;9940;47.252;8.696;2023-03-03T05:28:44;4.50;99.90
19588;DHT22;9940;47.252;8.696;2023-03-03T05:31:12;4.50;99.90
19588;DHT22;9940;47.252;8.696;2023-03-03T05:33:38;4.60;99.90
19588;DHT22;9940;47.252;8.696;2023-03-03T05:36:03;4.60;99.90
19588;DHT22;9940;47.252;8.696;2023-03-03T05:38:29;4.50;99.90
19588;DHT22;9940;47.252;8.696;2023-03-03T05:40:55;4.60;99.90
19588;DHT22;9940;47.252;8.696;2023-03-03T05:43:20;4.50;99.90
19588;DHT22;9940;47.252;8.696;2023-03-03T05:45:52;4.60;99.90
19588;DHT22;9940;47.252;8.696;2023-03-03T05:48:18;4.60;99.90
19588;DHT22;9940;47.252;8.696;2023-03-03T05:50:44;4.60;99.90
19588;DHT22;9940;47.252;8.696;2023-03-03T05:53:09;4.50;99.90
19588;DHT22;9940;47.252;8.696;2023-03-03T05:55:35;4.60;99.90
19588;DHT22;9940;47.252;8.696;2023-03-03T05:58:00;4.50;99.90
19588;DHT22;9940;47.252;8.696;2023-03-03T06:00:26;4.60;99.90
19588;DHT22;9940;47.252;8.696;2023-03-03T06:02:52;4.60;99.90
19588;DHT22;9940;47.252;8.696;2023-03-03T06:05:17;4.50;99.90
19588;DHT22;9940;47.252;8.696;2023-03-03T06:07:43;4.60;99.90
19588;DHT22;9940;47.252;8.696;2023-03-03T06:10:10;4.70;99.90
19588;DHT22;9940;47.252;8.696;2023-03-03T06:12:35;4.70;99.90
19588;DHT22;9940;47.252;8.696;2023-03-03T06:15:04;4.70;99.90
19588;DHT22;9940;47.252;8.696;2023-03-03T06:17:29;4.70;99.90
19588;DHT22;9940;47.252;8.696;2023-03-03T06:19:55;4.70;99.90
19588;DHT22;9940;47.252;8.696;2023-03-03T06:22:21;4.70;99.90
19588;DHT22;9940;47.252;8.696;2023-03-03T06:24:46;4.70;99.90
19588;DHT22;9940;47.252;8.696;2023-03-03T06:27:14;4.70;99.90
19588;DHT22;9940;47.252;8.696;2023-03-03T06:29:40;4.70;99.90
19588;DHT22;9940;47.252;8.696;2023-03-03T06:32:05;4.70;99.90
19588;DHT22;9940;47.252;8.696;2023-03-03T06:34:31;4.80;99.90
19588;DHT22;9940;47.252;8.696;2023-03-03T06:36:57;4.80;99.90
19588;DHT22;9940;47.252;8.696;2023-03-03T06:39:25;4.80;99.90
19588;DHT22;9940;47.252;8.696;2023-03-03T06:41:53;4.80;99.90
19588;DHT22;9940;47.252;8.696;2023-03-03T06:44:18;4.80;99.90
19588;DHT22;9940;47.252;8.696;2023-03-03T06:46:44;4.80;99.90
19588;DHT22;9940;47.252;8.696;2023-03-03T06:49:10;4.80;99.90
19588;DHT22;9940;47.252;8.696;2023-03-03T06:51:37;4.80;99.90
19588;DHT22;9940;47.252;8.696;2023-03-03T06:54:12;4.80;99.90
19588;DHT22;9940;47.252;8.696;2023-03-03T06:56:39;4.70;99.90
19588;DHT22;9940;47.252;8.696;2023-03-03T06:59:13;4.70;99.90
19588;DHT22;9940;47.252;8.696;2023-03-03T07:01:40;4.70;99.90
19588;DHT22;9940;47.252;8.696;2023-03-03T07:06:44;4.70;99.90
19588;DHT22;9940;47.252;8.696;2023-03-03T07:09:22;4.60;99.90
19588;DHT22;9940;47.252;8.696;2023-03-03T07:11:51;4.70;99.90
19588;DHT22;9940;47.252;8.696;2023-03-03T07:14:18;4.70;99.90
19588;DHT22;9940;47.252;8.696;2023-03-03T07:16:45;4.70;99.90
19588;DHT22;9940;47.252;8.696;2023-03-03T07:19:19;4.70;99.90
19588;DHT22;9940;47.252;8.696;2023-03-03T07:21:45;4.70;99.90
19588;DHT22;9940;47.252;8.696;2023-03-03T07:24:28;4.70;99.90
19588;DHT22;9940;47.252;8.696;2023-03-03T07:27:05;4.70;99.90
19588;DHT22;9940;47.252;8.696;2023-03-03T07:29:36;4.70;99.90
19588;DHT22;9940;47.252;8.696;2023-03-03T07:34:45;4.80;99.90
19588;DHT22;9940;47.252;8.696;2023-03-03T07:39:56;4.90;99.90
19588;DHT22;9940;47.252;8.696;2023-03-03T07:44:55;4.90;99.90
19588;DHT22;9940;47.252;8.696;2023-03-03T07:47:27;4.90;99.90
19588;DHT22;9940;47.252;8.696;2023-03-03T07:49:59;4.90;99.90
19588;DHT22;9940;47.252;8.696;2023-03-03T07:52:30;5.00;99.90
19588;DHT22;9940;47.252;8.696;2023-03-03T07:55:00;5.00;99.90
19588;DHT22;9940;47.252;8.696;2023-03-03T07:57:36;5.00;99.90
19588;DHT22;9940;47.252;8.696;2023-03-03T08:05:42;5.10;99.90
19588;DHT22;9940;47.252;8.696;2023-03-03T08:13:16;5.20;99.90
19588;DHT22;9940;47.252;8.696;2023-03-03T08:15:45;5.20;99.90
19588;DHT22;9940;47.252;8.696;2023-03-03T08:18:24;5.20;99.90
19588;DHT22;9940;47.252;8.696;2023-03-03T08:21:30;5.20;99.90
19588;DHT22;9940;47.252;8.696;2023-03-03T08:23:49;5.20;99.90
19588;DHT22;9940;47.252;8.696;2023-03-03T08:26:17;5.20;99.90
19588;DHT22;9940;47.252;8.696;2023-03-03T08:28:43;5.30;99.90
19588;DHT22;9940;47.252;8.696;2023-03-03T08:31:09;5.30;99.90
19588;DHT22;9940;47.252;8.696;2023-03-03T08:33:35;5.30;99.90
19588;DHT22;9940;47.252;8.696;2023-03-03T08:36:00;5.30;99.90
19588;DHT22;9940;47.252;8.696;2023-03-03T08:38:29;5.30;99.90
19588;DHT22;9940;47.252;8.696;2023-03-03T08:40:54;5.40;99.90
19588;DHT22;9940;47.252;8.696;2023-03-03T08:43:22;5.40;99.90
19588;DHT22;9940;47.252;8.696;2023-03-03T08:45:53;5.50;99.90
19588;DHT22;9940;47.252;8.696;2023-03-03T08:48:22;5.50;99.90
19588;DHT22;9940;47.252;8.696;2023-03-03T08:50:48;5.60;99.90
19588;DHT22;9940;47.252;8.696;2023-03-03T08:53:14;5.60;99.90
19588;DHT22;9940;47.252;8.696;2023-03-03T08:55:40;5.60;99.90
19588;DHT22;9940;47.252;8.696;2023-03-03T08:58:06;5.60;99.90
19588;DHT22;9940;47.252;8.696;2023-03-03T09:00:32;5.70;99.90
19588;DHT22;9940;47.252;8.696;2023-03-03T09:03:01;5.70;99.60
19588;DHT22;9940;47.252;8.696;2023-03-03T09:05:27;5.70;99.40
19588;DHT22;9940;47.252;8.696;2023-03-03T09:07:53;5.70;99.30
19588;DHT22;9940;47.252;8.696;2023-03-03T09:10:27;5.70;99.30
19588;DHT22;9940;47.252;8.696;2023-03-03T09:12:54;5.70;99.10
19588;DHT22;9940;47.252;8.696;2023-03-03T09:15:28;5.70;99.00
19588;DHT22;9940;47.252;8.696;2023-03-03T09:17:58;5.70;99.00
19588;DHT22;9940;47.252;8.696;2023-03-03T09:23:07;5.80;98.60
19588;DHT22;9940;47.252;8.696;2023-03-03T09:25:44;5.90;98.30
19588;DHT22;9940;47.252;8.696;2023-03-03T09:30:50;6.10;97.90
19588;DHT22;9940;47.252;8.696;2023-03-03T09:33:23;6.10;97.60
19588;DHT22;9940;47.252;8.696;2023-03-03T09:35:51;6.20;97.30
19588;DHT22;9940;47.252;8.696;2023-03-03T09:38:27;6.10;97.30
19588;DHT22;9940;47.252;8.696;2023-03-03T09:47:01;6.10;97.00
19588;DHT22;9940;47.252;8.696;2023-03-03T09:49:44;6.00;97.00
19588;DHT22;9940;47.252;8.696;2023-03-03T10:00:40;6.00;97.30
19588;DHT22;9940;47.252;8.696;2023-03-03T10:08:52;6.10;96.60
19588;DHT22;9940;47.252;8.696;2023-03-03T10:11:31;6.10;96.60
19588;DHT22;9940;47.252;8.696;2023-03-03T10:21:59;6.00;96.60
19588;DHT22;9940;47.252;8.696;2023-03-03T10:24:29;6.00;96.60
19588;DHT22;9940;47.252;8.696;2023-03-03T10:32:51;6.10;96.60
19588;DHT22;9940;47.252;8.696;2023-03-03T10:52:42;6.40;95.10
19588;DHT22;9940;47.252;8.696;2023-03-03T10:55:44;6.40;95.20
19588;DHT22;9940;47.252;8.696;2023-03-03T10:58:22;6.30;95.30
19588;DHT22;9940;47.252;8.696;2023-03-03T11:06:15;6.30;95.50
19588;DHT22;9940;47.252;8.696;2023-03-03T11:14:07;6.30;95.40
19588;DHT22;9940;47.252;8.696;2023-03-03T11:16:58;6.20;95.40
19588;DHT22;9940;47.252;8.696;2023-03-03T11:19:32;6.10;95.60
19588;DHT22;9940;47.252;8.696;2023-03-03T11:28:09;6.00;96.20
19588;DHT22;9940;47.252;8.696;2023-03-03T11:39:25;6.30;95.50
19588;DHT22;9940;47.252;8.696;2023-03-03T11:47:16;6.40;95.50
19588;DHT22;9940;47.252;8.696;2023-03-03T11:55:20;6.50;95.30
19588;DHT22;9940;47.252;8.696;2023-03-03T12:03:33;7.00;94.30
19588;DHT22;9940;47.252;8.696;2023-03-03T12:11:25;7.40;92.60
19588;DHT22;9940;47.252;8.696;2023-03-03T12:16:55;7.40;92.40
19588;DHT22;9940;47.252;8.696;2023-03-03T12:24:59;7.50;92.20
19588;DHT22;9940;47.252;8.696;2023-03-03T12:39:01;8.10;90.20
19588;DHT22;9940;47.252;8.696;2023-03-03T12:46:59;8.10;89.80
19588;DHT22;9940;47.252;8.696;2023-03-03T13:07:50;8.90;86.50
19588;DHT22;9940;47.252;8.696;2023-03-03T13:10:33;9.60;84.30
19588;DHT22;9940;47.252;8.696;2023-03-03T13:16:01;11.00;78.70
19588;DHT22;9940;47.252;8.696;2023-03-03T16:52:14;10.10;65.80
19588;DHT22;9940;47.252;8.696;2023-03-03T16:57:30;9.90;66.80
19588;DHT22;9940;47.252;8.696;2023-03-03T17:13:32;9.20;69.10
19588;DHT22;9940;47.252;8.696;2023-03-03T17:16:29;9.20;69.60
19588;DHT22;9940;47.252;8.696;2023-03-03T17:19:18;9.00;70.00
19588;DHT22;9940;47.252;8.696;2023-03-03T17:24:31;8.90;71.30
19588;DHT22;9940;47.252;8.696;2023-03-03T17:46:32;8.50;74.40
19588;DHT22;9940;47.252;8.696;2023-03-03T17:49:16;8.50;74.60
19588;DHT22;9940;47.252;8.696;2023-03-03T17:52:12;8.50;74.90
19588;DHT22;9940;47.252;8.696;2023-03-03T17:58:07;8.50;75.60
19588;DHT22;9940;47.252;8.696;2023-03-03T18:06:27;8.40;76.40
19588;DHT22;9940;47.252;8.696;2023-03-03T18:14:52;8.30;77.40
19588;DHT22;9940;47.252;8.696;2023-03-03T18:17:27;8.30;77.70
19588;DHT22;9940;47.252;8.696;2023-03-03T18:25:11;8.20;78.90
19588;DHT22;9940;47.252;8.696;2023-03-03T18:27:39;8.20;79.20
19588;DHT22;9940;47.252;8.696;2023-03-03T18:32:41;8.20;79.90
19588;DHT22;9940;47.252;8.696;2023-03-03T18:35:30;8.20;80.00
19588;DHT22;9940;47.252;8.696;2023-03-03T19:04:40;8.00;84.80
19588;DHT22;9940;47.252;8.696;2023-03-03T19:07:25;8.00;85.10
19588;DHT22;9940;47.252;8.696;2023-03-03T19:10:03;8.10;85.60
19588;DHT22;9940;47.252;8.696;2023-03-03T19:18:22;8.00;86.60
19588;DHT22;9940;47.252;8.696;2023-03-03T19:21:03;8.00;87.30
19588;DHT22;9940;47.252;8.696;2023-03-03T19:23:52;7.90;87.80
19588;DHT22;9940;47.252;8.696;2023-03-03T19:34:36;8.00;89.20
19588;DHT22;9940;47.252;8.696;2023-03-03T19:42:36;7.90;89.90
19588;DHT22;9940;47.252;8.696;2023-03-03T19:51:13;7.80;90.50
19588;DHT22;9940;47.252;8.696;2023-03-03T19:56:38;7.80;90.90
19588;DHT22;9940;47.252;8.696;2023-03-03T20:10:25;7.80;91.30
19588;DHT22;9940;47.252;8.696;2023-03-03T20:24:34;7.70;92.80
19588;DHT22;9940;47.252;8.696;2023-03-03T20:46:39;7.50;95.70
19588;DHT22;9940;47.252;8.696;2023-03-03T20:49:35;7.50;95.70
19588;DHT22;9940;47.252;8.696;2023-03-03T20:53:29;7.60;96.00
19588;DHT22;9940;47.252;8.696;2023-03-03T20:56:11;7.50;96.00
19588;DHT22;9940;47.252;8.696;2023-03-03T21:01:07;7.50;96.20
19588;DHT22;9940;47.252;8.696;2023-03-03T21:03:42;7.50;96.40
19588;DHT22;9940;47.252;8.696;2023-03-03T21:06:12;7.50;96.50
19588;DHT22;9940;47.252;8.696;2023-03-03T21:08:52;7.50;96.70
19588;DHT22;9940;47.252;8.696;2023-03-03T21:13:57;7.50;96.90
19588;DHT22;9940;47.252;8.696;2023-03-03T21:19:05;7.50;97.30
19588;DHT22;9940;47.252;8.696;2023-03-03T21:21:43;7.50;97.30
19588;DHT22;9940;47.252;8.696;2023-03-03T21:24:13;7.40;97.30
19588;DHT22;9940;47.252;8.696;2023-03-03T21:26:59;7.50;97.30
19588;DHT22;9940;47.252;8.696;2023-03-03T21:29:31;7.40;97.40
19588;DHT22;9940;47.252;8.696;2023-03-03T21:31:59;7.40;97.40
19588;DHT22;9940;47.252;8.696;2023-03-03T21:34:26;7.40;97.50
19588;DHT22;9940;47.252;8.696;2023-03-03T21:36:57;7.30;97.60
19588;DHT22;9940;47.252;8.696;2023-03-03T21:39:41;7.30;97.70
19588;DHT22;9940;47.252;8.696;2023-03-03T21:42:15;7.30;97.70
19588;DHT22;9940;47.252;8.696;2023-03-03T21:44:45;7.30;97.70
19588;DHT22;9940;47.252;8.696;2023-03-03T21:47:17;7.30;97.80
19588;DHT22;9940;47.252;8.696;2023-03-03T21:49:47;7.30;97.80
19588;DHT22;9940;47.252;8.696;2023-03-03T21:52:17;7.30;97.80
19588;DHT22;9940;47.252;8.696;2023-03-03T21:54:44;7.30;97.80
19588;DHT22;9940;47.252;8.696;2023-03-03T21:57:11;7.30;97.80
19588;DHT22;9940;47.252;8.696;2023-03-03T21:59:37;7.30;97.90
19588;DHT22;9940;47.252;8.696;2023-03-03T22:02:06;7.40;98.00
19588;DHT22;9940;47.252;8.696;2023-03-03T22:04:32;7.30;98.10
19588;DHT22;9940;47.252;8.696;2023-03-03T22:07:02;7.30;98.10
19588;DHT22;9940;47.252;8.696;2023-03-03T22:09:28;7.30;98.20
19588;DHT22;9940;47.252;8.696;2023-03-03T22:11:54;7.20;98.30
19588;DHT22;9940;47.252;8.696;2023-03-03T22:14:19;7.20;98.40
19588;DHT22;9940;47.252;8.696;2023-03-03T22:16:45;7.20;98.50
19588;DHT22;9940;47.252;8.696;2023-03-03T22:19:11;7.10;98.70
19588;DHT22;9940;47.252;8.696;2023-03-03T22:21:38;7.10;98.80
19588;DHT22;9940;47.252;8.696;2023-03-03T22:24:04;7.10;98.90
19588;DHT22;9940;47.252;8.696;2023-03-03T22:26:31;7.10;99.00
19588;DHT22;9940;47.252;8.696;2023-03-03T22:28:59;7.10;99.00
19588;DHT22;9940;47.252;8.696;2023-03-03T22:31:25;7.10;99.00
19588;DHT22;9940;47.252;8.696;2023-03-03T22:33:51;7.10;99.10
19588;DHT22;9940;47.252;8.696;2023-03-03T22:36:19;7.10;99.10
19588;DHT22;9940;47.252;8.696;2023-03-03T22:38:47;7.10;99.10
19588;DHT22;9940;47.252;8.696;2023-03-03T22:41:13;7.00;99.10
19588;DHT22;9940;47.252;8.696;2023-03-03T22:43:39;7.00;99.10
19588;DHT22;9940;47.252;8.696;2023-03-03T22:46:06;7.00;99.20
19588;DHT22;9940;47.252;8.696;2023-03-03T22:48:32;6.90;99.30
19588;DHT22;9940;47.252;8.696;2023-03-03T22:51:00;6.90;99.40
19588;DHT22;9940;47.252;8.696;2023-03-03T22:53:26;6.90;99.40
19588;DHT22;9940;47.252;8.696;2023-03-03T22:55:54;7.00;99.40
19588;DHT22;9940;47.252;8.696;2023-03-03T22:58:20;6.90;99.30
19588;DHT22;9940;47.252;8.696;2023-03-03T23:00:50;6.90;99.40
19588;DHT22;9940;47.252;8.696;2023-03-03T23:03:16;7.00;99.50
19588;DHT22;9940;47.252;8.696;2023-03-03T23:05:42;7.00;99.60
19588;DHT22;9940;47.252;8.696;2023-03-03T23:08:12;7.00;99.70
19588;DHT22;9940;47.252;8.696;2023-03-03T23:10:41;7.00;99.70
19588;DHT22;9940;47.252;8.696;2023-03-03T23:13:07;7.00;99.80
19588;DHT22;9940;47.252;8.696;2023-03-03T23:15:33;7.00;99.90
19588;DHT22;9940;47.252;8.696;2023-03-03T23:18:02;7.00;99.90
19588;DHT22;9940;47.252;8.696;2023-03-03T23:20:29;7.00;99.90
19588;DHT22;9940;47.252;8.696;2023-03-03T23:22:55;7.00;99.90
19588;DHT22;9940;47.252;8.696;2023-03-03T23:25:21;7.00;99.90
19588;DHT22;9940;47.252;8.696;2023-03-03T23:27:48;7.00;99.90
19588;DHT22;9940;47.252;8.696;2023-03-03T23:30:20;7.00;99.90
19588;DHT22;9940;47.252;8.696;2023-03-03T23:32:46;7.00;99.90
19588;DHT22;9940;47.252;8.696;2023-03-03T23:35:20;7.00;99.90
19588;DHT22;9940;47.252;8.696;2023-03-03T23:37:46;7.00;99.90
19588;DHT22;9940;47.252;8.696;2023-03-03T23:40:15;7.00;99.90
19588;DHT22;9940;47.252;8.696;2023-03-03T23:42:41;7.00;99.90
19588;DHT22;9940;47.252;8.696;2023-03-03T23:45:11;7.00;99.90
19588;DHT22;9940;47.252;8.696;2023-03-03T23:47:36;7.00;99.90
19588;DHT22;9940;47.252;8.696;2023-03-03T23:50:02;7.00;99.90
19588;DHT22;9940;47.252;8.696;2023-03-03T23:52:28;6.90;99.90
19588;DHT22;9940;47.252;8.696;2023-03-03T23:54:54;6.90;99.90
19588;DHT22;9940;47.252;8.696;2023-03-03T23:57:19;6.90;99.90
19588;DHT22;9940;47.252;8.696;2023-03-03T23:59:45;6.90;99.90
